sensor_id;sensor_type;location;lat;lon;timestamp;P1;durP1;ratioP1;P2;durP2;ratioP2
73850;SDS011;62190;51.548;5.688;2023-03-01T00:01:21;12.75;;;7.30;;
73850;SDS011;62190;51.548;5.688;2023-03-01T00:03:51;10.65;;;7.03;;
73850;SDS011;62190;51.548;5.688;2023-03-01T00:06:19;10.30;;;6.47;;
73850;SDS011;62190;51.548;5.688;2023-03-01T00:08:48;9.00;;;7.15;;
73850;SDS011;62190;51.548;5.688;2023-03-01T00:11:20;11.38;;;7.17;;
73850;SDS011;62190;51.548;5.688;2023-03-01T00:13:52;10.40;;;6.10;;
73850;SDS011;62190;51.548;5.688;2023-03-01T00:16:29;11.45;;;7.90;;
73850;SDS011;62190;51.548;5.688;2023-03-01T00:19:01;12.05;;;6.67;;
73850;SDS011;62190;51.548;5.688;2023-03-01T00:21:29;10.82;;;6.42;;
73850;SDS011;62190;51.548;5.688;2023-03-01T00:23:56;13.85;;;6.75;;
73850;SDS011;62190;51.548;5.688;2023-03-01T00:26:27;10.45;;;6.80;;
73850;SDS011;62190;51.548;5.688;2023-03-01T00:28:56;9.55;;;6.45;;
73850;SDS011;62190;51.548;5.688;2023-03-01T00:31:29;10.38;;;6.20;;
73850;SDS011;62190;51.548;5.688;2023-03-01T00:33:56;9.25;;;6.40;;
73850;SDS011;62190;51.548;5.688;2023-03-01T00:36:25;10.55;;;6.67;;
73850;SDS011;62190;51.548;5.688;2023-03-01T00:38:59;15.10;;;7.25;;
73850;SDS011;62190;51.548;5.688;2023-03-01T00:41:26;12.63;;;7.50;;
73850;SDS011;62190;51.548;5.688;2023-03-01T00:43:54;11.85;;;7.45;;
73850;SDS011;62190;51.548;5.688;2023-03-01T00:46:22;12.20;;;6.80;;
73850;SDS011;62190;51.548;5.688;2023-03-01T00:48:51;13.30;;;6.78;;
73850;SDS011;62190;51.548;5.688;2023-03-01T00:51:20;11.80;;;6.35;;
73850;SDS011;62190;51.548;5.688;2023-03-01T00:53:55;13.13;;;6.47;;
73850;SDS011;62190;51.548;5.688;2023-03-01T00:56:23;12.15;;;7.08;;
73850;SDS011;62190;51.548;5.688;2023-03-01T00:58:52;10.95;;;6.60;;
73850;SDS011;62190;51.548;5.688;2023-03-01T01:01:24;12.98;;;7.58;;
73850;SDS011;62190;51.548;5.688;2023-03-01T01:03:55;11.18;;;6.28;;
73850;SDS011;62190;51.548;5.688;2023-03-01T01:06:28;11.55;;;6.72;;
73850;SDS011;62190;51.548;5.688;2023-03-01T01:08:57;9.98;;;6.03;;
73850;SDS011;62190;51.548;5.688;2023-03-01T01:11:28;13.03;;;6.78;;
73850;SDS011;62190;51.548;5.688;2023-03-01T01:13:56;13.43;;;7.30;;
73850;SDS011;62190;51.548;5.688;2023-03-01T01:16:24;11.68;;;7.30;;
73850;SDS011;62190;51.548;5.688;2023-03-01T01:18:55;12.50;;;7.47;;
73850;SDS011;62190;51.548;5.688;2023-03-01T01:21:24;11.35;;;6.90;;
73850;SDS011;62190;51.548;5.688;2023-03-01T01:23:52;12.23;;;7.22;;
73850;SDS011;62190;51.548;5.688;2023-03-01T01:26:20;10.60;;;6.75;;
73850;SDS011;62190;51.548;5.688;2023-03-01T01:28:49;12.03;;;8.03;;
73850;SDS011;62190;51.548;5.688;2023-03-01T01:31:17;15.50;;;8.55;;
73850;SDS011;62190;51.548;5.688;2023-03-01T01:33:44;13.20;;;7.87;;
73850;SDS011;62190;51.548;5.688;2023-03-01T01:36:12;15.05;;;8.48;;
73850;SDS011;62190;51.548;5.688;2023-03-01T01:38:40;14.83;;;8.05;;
73850;SDS011;62190;51.548;5.688;2023-03-01T01:41:08;9.85;;;7.03;;
73850;SDS011;62190;51.548;5.688;2023-03-01T01:43:38;12.60;;;7.65;;
73850;SDS011;62190;51.548;5.688;2023-03-01T01:46:14;12.68;;;8.10;;
73850;SDS011;62190;51.548;5.688;2023-03-01T01:48:45;13.40;;;7.10;;
73850;SDS011;62190;51.548;5.688;2023-03-01T01:51:20;14.73;;;7.53;;
73850;SDS011;62190;51.548;5.688;2023-03-01T01:53:51;15.53;;;8.40;;
73850;SDS011;62190;51.548;5.688;2023-03-01T01:56:20;13.70;;;7.30;;
73850;SDS011;62190;51.548;5.688;2023-03-01T01:58:48;14.05;;;7.78;;
73850;SDS011;62190;51.548;5.688;2023-03-01T02:01:16;13.68;;;6.55;;
73850;SDS011;62190;51.548;5.688;2023-03-01T02:03:46;14.53;;;8.20;;
73850;SDS011;62190;51.548;5.688;2023-03-01T02:06:15;11.97;;;7.87;;
73850;SDS011;62190;51.548;5.688;2023-03-01T02:08:59;11.30;;;7.60;;
73850;SDS011;62190;51.548;5.688;2023-03-01T02:11:34;13.48;;;7.42;;
73850;SDS011;62190;51.548;5.688;2023-03-01T02:13:58;13.50;;;7.65;;
73850;SDS011;62190;51.548;5.688;2023-03-01T02:16:25;11.93;;;6.90;;
73850;SDS011;62190;51.548;5.688;2023-03-01T02:18:54;16.02;;;8.48;;
73850;SDS011;62190;51.548;5.688;2023-03-01T02:21:26;11.95;;;7.25;;
73850;SDS011;62190;51.548;5.688;2023-03-01T02:26:50;13.80;;;8.15;;
73850;SDS011;62190;51.548;5.688;2023-03-01T02:29:19;13.28;;;7.42;;
73850;SDS011;62190;51.548;5.688;2023-03-01T02:31:48;11.90;;;6.70;;
73850;SDS011;62190;51.548;5.688;2023-03-01T02:34:22;13.20;;;7.67;;
73850;SDS011;62190;51.548;5.688;2023-03-01T02:37:09;12.35;;;7.15;;
73850;SDS011;62190;51.548;5.688;2023-03-01T02:39:48;13.98;;;7.08;;
73850;SDS011;62190;51.548;5.688;2023-03-01T02:42:23;12.90;;;7.28;;
73850;SDS011;62190;51.548;5.688;2023-03-01T02:44:53;10.58;;;7.03;;
73850;SDS011;62190;51.548;5.688;2023-03-01T02:47:22;12.80;;;7.78;;
73850;SDS011;62190;51.548;5.688;2023-03-01T02:49:51;14.25;;;8.05;;
73850;SDS011;62190;51.548;5.688;2023-03-01T02:52:40;17.10;;;7.60;;
73850;SDS011;62190;51.548;5.688;2023-03-01T02:55:18;9.83;;;6.50;;
73850;SDS011;62190;51.548;5.688;2023-03-01T02:57:42;11.20;;;6.78;;
73850;SDS011;62190;51.548;5.688;2023-03-01T03:00:12;11.40;;;6.85;;
73850;SDS011;62190;51.548;5.688;2023-03-01T03:02:45;11.00;;;6.72;;
73850;SDS011;62190;51.548;5.688;2023-03-01T03:05:16;14.40;;;7.17;;
73850;SDS011;62190;51.548;5.688;2023-03-01T03:07:45;12.65;;;7.55;;
73850;SDS011;62190;51.548;5.688;2023-03-01T03:10:20;10.70;;;7.30;;
73850;SDS011;62190;51.548;5.688;2023-03-01T03:12:50;12.50;;;7.35;;
73850;SDS011;62190;51.548;5.688;2023-03-01T03:15:20;12.50;;;7.47;;
73850;SDS011;62190;51.548;5.688;2023-03-01T03:17:50;12.65;;;7.33;;
73850;SDS011;62190;51.548;5.688;2023-03-01T03:20:21;11.05;;;6.28;;
73850;SDS011;62190;51.548;5.688;2023-03-01T03:22:51;13.60;;;7.45;;
73850;SDS011;62190;51.548;5.688;2023-03-01T03:25:22;16.77;;;7.65;;
73850;SDS011;62190;51.548;5.688;2023-03-01T03:27:51;13.13;;;7.08;;
73850;SDS011;62190;51.548;5.688;2023-03-01T03:30:20;15.48;;;7.62;;
73850;SDS011;62190;51.548;5.688;2023-03-01T03:32:48;15.50;;;8.45;;
73850;SDS011;62190;51.548;5.688;2023-03-01T03:35:27;13.90;;;7.90;;
73850;SDS011;62190;51.548;5.688;2023-03-01T03:37:54;12.03;;;7.70;;
73850;SDS011;62190;51.548;5.688;2023-03-01T03:40:33;12.05;;;7.30;;
73850;SDS011;62190;51.548;5.688;2023-03-01T03:43:05;14.63;;;8.58;;
73850;SDS011;62190;51.548;5.688;2023-03-01T03:45:35;12.78;;;7.58;;
73850;SDS011;62190;51.548;5.688;2023-03-01T03:48:03;13.28;;;7.83;;
73850;SDS011;62190;51.548;5.688;2023-03-01T03:50:32;13.28;;;7.85;;
73850;SDS011;62190;51.548;5.688;2023-03-01T03:53:00;16.20;;;8.13;;
73850;SDS011;62190;51.548;5.688;2023-03-01T03:58:02;12.73;;;7.67;;
73850;SDS011;62190;51.548;5.688;2023-03-01T04:00:32;13.78;;;7.78;;
73850;SDS011;62190;51.548;5.688;2023-03-01T04:03:01;13.45;;;7.05;;
73850;SDS011;62190;51.548;5.688;2023-03-01T04:05:28;20.97;;;8.95;;
73850;SDS011;62190;51.548;5.688;2023-03-01T04:07:56;13.80;;;8.28;;
73850;SDS011;62190;51.548;5.688;2023-03-01T04:10:33;13.68;;;8.13;;
73850;SDS011;62190;51.548;5.688;2023-03-01T04:12:57;19.35;;;8.35;;
73850;SDS011;62190;51.548;5.688;2023-03-01T04:15:25;15.03;;;8.45;;
73850;SDS011;62190;51.548;5.688;2023-03-01T04:17:54;14.60;;;8.40;;
73850;SDS011;62190;51.548;5.688;2023-03-01T04:20:24;15.03;;;7.75;;
73850;SDS011;62190;51.548;5.688;2023-03-01T04:23:02;15.35;;;9.00;;
73850;SDS011;62190;51.548;5.688;2023-03-01T04:25:41;14.47;;;7.45;;
73850;SDS011;62190;51.548;5.688;2023-03-01T04:28:10;14.75;;;8.15;;
73850;SDS011;62190;51.548;5.688;2023-03-01T04:30:37;14.43;;;8.43;;
73850;SDS011;62190;51.548;5.688;2023-03-01T04:33:07;14.93;;;8.80;;
73850;SDS011;62190;51.548;5.688;2023-03-01T04:35:37;14.98;;;9.28;;
73850;SDS011;62190;51.548;5.688;2023-03-01T04:38:05;15.28;;;8.35;;
73850;SDS011;62190;51.548;5.688;2023-03-01T04:40:34;14.18;;;8.48;;
73850;SDS011;62190;51.548;5.688;2023-03-01T04:43:03;14.58;;;8.83;;
73850;SDS011;62190;51.548;5.688;2023-03-01T04:45:31;13.43;;;8.33;;
73850;SDS011;62190;51.548;5.688;2023-03-01T04:48:00;14.78;;;8.83;;
73850;SDS011;62190;51.548;5.688;2023-03-01T04:50:27;14.25;;;8.33;;
73850;SDS011;62190;51.548;5.688;2023-03-01T04:52:54;14.45;;;8.58;;
73850;SDS011;62190;51.548;5.688;2023-03-01T04:55:26;13.90;;;8.78;;
73850;SDS011;62190;51.548;5.688;2023-03-01T04:57:54;14.73;;;8.80;;
73850;SDS011;62190;51.548;5.688;2023-03-01T05:00:22;16.48;;;9.10;;
73850;SDS011;62190;51.548;5.688;2023-03-01T05:02:50;15.58;;;9.15;;
73850;SDS011;62190;51.548;5.688;2023-03-01T05:05:20;15.50;;;8.73;;
73850;SDS011;62190;51.548;5.688;2023-03-01T05:07:53;17.48;;;9.13;;
73850;SDS011;62190;51.548;5.688;2023-03-01T05:10:21;15.95;;;8.53;;
73850;SDS011;62190;51.548;5.688;2023-03-01T05:12:48;16.25;;;9.53;;
73850;SDS011;62190;51.548;5.688;2023-03-01T05:15:17;15.95;;;9.30;;
73850;SDS011;62190;51.548;5.688;2023-03-01T05:17:48;16.95;;;9.35;;
73850;SDS011;62190;51.548;5.688;2023-03-01T05:20:15;17.85;;;8.83;;
73850;SDS011;62190;51.548;5.688;2023-03-01T05:22:43;14.90;;;8.13;;
73850;SDS011;62190;51.548;5.688;2023-03-01T05:25:10;12.45;;;7.83;;
73850;SDS011;62190;51.548;5.688;2023-03-01T05:27:39;17.05;;;9.15;;
73850;SDS011;62190;51.548;5.688;2023-03-01T05:30:07;14.63;;;8.00;;
73850;SDS011;62190;51.548;5.688;2023-03-01T05:32:44;16.45;;;8.50;;
73850;SDS011;62190;51.548;5.688;2023-03-01T05:35:14;15.90;;;8.83;;
73850;SDS011;62190;51.548;5.688;2023-03-01T05:37:45;15.38;;;8.93;;
73850;SDS011;62190;51.548;5.688;2023-03-01T05:40:17;15.15;;;8.88;;
73850;SDS011;62190;51.548;5.688;2023-03-01T05:42:46;13.32;;;8.75;;
73850;SDS011;62190;51.548;5.688;2023-03-01T05:45:16;18.07;;;9.35;;
73850;SDS011;62190;51.548;5.688;2023-03-01T05:47:44;20.92;;;9.60;;
73850;SDS011;62190;51.548;5.688;2023-03-01T05:50:14;19.05;;;10.38;;
73850;SDS011;62190;51.548;5.688;2023-03-01T05:52:50;14.78;;;8.85;;
73850;SDS011;62190;51.548;5.688;2023-03-01T05:55:16;17.27;;;9.80;;
73850;SDS011;62190;51.548;5.688;2023-03-01T05:57:49;17.40;;;9.93;;
73850;SDS011;62190;51.548;5.688;2023-03-01T06:00:17;18.90;;;9.60;;
73850;SDS011;62190;51.548;5.688;2023-03-01T06:02:48;16.65;;;8.95;;
73850;SDS011;62190;51.548;5.688;2023-03-01T06:05:17;18.10;;;9.48;;
73850;SDS011;62190;51.548;5.688;2023-03-01T06:07:45;21.05;;;10.40;;
73850;SDS011;62190;51.548;5.688;2023-03-01T06:10:13;17.50;;;9.55;;
73850;SDS011;62190;51.548;5.688;2023-03-01T06:12:41;16.55;;;10.65;;
73850;SDS011;62190;51.548;5.688;2023-03-01T06:15:14;20.25;;;10.28;;
73850;SDS011;62190;51.548;5.688;2023-03-01T06:17:43;17.65;;;10.48;;
73850;SDS011;62190;51.548;5.688;2023-03-01T06:20:15;17.20;;;9.63;;
73850;SDS011;62190;51.548;5.688;2023-03-01T06:22:44;15.65;;;9.58;;
73850;SDS011;62190;51.548;5.688;2023-03-01T06:25:13;19.15;;;10.35;;
73850;SDS011;62190;51.548;5.688;2023-03-01T06:27:41;20.48;;;10.08;;
73850;SDS011;62190;51.548;5.688;2023-03-01T06:30:10;16.55;;;9.28;;
73850;SDS011;62190;51.548;5.688;2023-03-01T06:32:39;20.30;;;9.48;;
73850;SDS011;62190;51.548;5.688;2023-03-01T06:35:09;13.80;;;8.35;;
73850;SDS011;62190;51.548;5.688;2023-03-01T06:37:37;18.50;;;9.73;;
73850;SDS011;62190;51.548;5.688;2023-03-01T06:40:07;17.85;;;8.80;;
73850;SDS011;62190;51.548;5.688;2023-03-01T06:42:38;17.73;;;10.68;;
73850;SDS011;62190;51.548;5.688;2023-03-01T06:45:07;20.32;;;10.85;;
73850;SDS011;62190;51.548;5.688;2023-03-01T06:47:35;20.37;;;10.70;;
73850;SDS011;62190;51.548;5.688;2023-03-01T06:50:02;21.52;;;9.53;;
73850;SDS011;62190;51.548;5.688;2023-03-01T06:52:30;20.27;;;10.78;;
73850;SDS011;62190;51.548;5.688;2023-03-01T06:54:57;18.37;;;9.95;;
73850;SDS011;62190;51.548;5.688;2023-03-01T06:57:24;18.60;;;10.50;;
73850;SDS011;62190;51.548;5.688;2023-03-01T06:59:52;18.82;;;10.35;;
73850;SDS011;62190;51.548;5.688;2023-03-01T07:02:19;15.70;;;9.33;;
73850;SDS011;62190;51.548;5.688;2023-03-01T07:04:48;17.62;;;10.08;;
73850;SDS011;62190;51.548;5.688;2023-03-01T07:07:16;19.45;;;9.90;;
73850;SDS011;62190;51.548;5.688;2023-03-01T07:09:46;20.75;;;10.43;;
73850;SDS011;62190;51.548;5.688;2023-03-01T07:12:15;17.12;;;9.80;;
73850;SDS011;62190;51.548;5.688;2023-03-01T07:14:43;16.87;;;9.30;;
73850;SDS011;62190;51.548;5.688;2023-03-01T07:17:11;17.15;;;9.20;;
73850;SDS011;62190;51.548;5.688;2023-03-01T07:19:38;19.30;;;10.03;;
73850;SDS011;62190;51.548;5.688;2023-03-01T07:22:06;17.95;;;9.88;;
73850;SDS011;62190;51.548;5.688;2023-03-01T07:24:36;18.12;;;9.43;;
73850;SDS011;62190;51.548;5.688;2023-03-01T07:27:03;19.60;;;9.88;;
73850;SDS011;62190;51.548;5.688;2023-03-01T07:29:30;17.17;;;9.33;;
73850;SDS011;62190;51.548;5.688;2023-03-01T07:31:57;15.75;;;8.78;;
73850;SDS011;62190;51.548;5.688;2023-03-01T07:34:26;16.05;;;9.20;;
73850;SDS011;62190;51.548;5.688;2023-03-01T07:36:54;15.60;;;9.28;;
73850;SDS011;62190;51.548;5.688;2023-03-01T07:39:21;19.90;;;9.23;;
73850;SDS011;62190;51.548;5.688;2023-03-01T07:41:51;17.92;;;10.15;;
73850;SDS011;62190;51.548;5.688;2023-03-01T07:44:19;15.72;;;8.98;;
73850;SDS011;62190;51.548;5.688;2023-03-01T07:46:46;20.02;;;9.15;;
73850;SDS011;62190;51.548;5.688;2023-03-01T07:49:13;14.68;;;8.28;;
73850;SDS011;62190;51.548;5.688;2023-03-01T07:51:40;18.92;;;9.38;;
73850;SDS011;62190;51.548;5.688;2023-03-01T07:54:10;13.58;;;8.50;;
73850;SDS011;62190;51.548;5.688;2023-03-01T07:56:37;13.50;;;8.43;;
73850;SDS011;62190;51.548;5.688;2023-03-01T07:59:06;13.05;;;7.95;;
73850;SDS011;62190;51.548;5.688;2023-03-01T08:01:33;13.00;;;7.70;;
73850;SDS011;62190;51.548;5.688;2023-03-01T08:04:00;13.95;;;8.18;;
73850;SDS011;62190;51.548;5.688;2023-03-01T08:06:28;12.58;;;7.25;;
73850;SDS011;62190;51.548;5.688;2023-03-01T08:08:55;12.85;;;7.22;;
73850;SDS011;62190;51.548;5.688;2023-03-01T08:11:23;11.45;;;7.65;;
73850;SDS011;62190;51.548;5.688;2023-03-01T08:13:51;12.35;;;7.53;;
73850;SDS011;62190;51.548;5.688;2023-03-01T08:16:18;13.53;;;7.40;;
73850;SDS011;62190;51.548;5.688;2023-03-01T08:18:45;9.88;;;6.50;;
73850;SDS011;62190;51.548;5.688;2023-03-01T08:21:14;13.25;;;5.83;;
73850;SDS011;62190;51.548;5.688;2023-03-01T08:23:43;10.32;;;6.33;;
73850;SDS011;62190;51.548;5.688;2023-03-01T08:26:17;12.25;;;6.30;;
73850;SDS011;62190;51.548;5.688;2023-03-01T08:28:41;10.90;;;6.08;;
73850;SDS011;62190;51.548;5.688;2023-03-01T08:31:16;10.18;;;6.37;;
73850;SDS011;62190;51.548;5.688;2023-03-01T08:33:45;10.18;;;6.42;;
73850;SDS011;62190;51.548;5.688;2023-03-01T08:36:17;7.83;;;5.75;;
73850;SDS011;62190;51.548;5.688;2023-03-01T08:38:46;14.07;;;6.45;;
73850;SDS011;62190;51.548;5.688;2023-03-01T08:41:13;9.83;;;6.78;;
73850;SDS011;62190;51.548;5.688;2023-03-01T08:43:41;12.00;;;5.53;;
73850;SDS011;62190;51.548;5.688;2023-03-01T08:46:08;11.75;;;6.33;;
73850;SDS011;62190;51.548;5.688;2023-03-01T08:48:36;14.30;;;6.67;;
73850;SDS011;62190;51.548;5.688;2023-03-01T08:51:12;10.40;;;6.30;;
73850;SDS011;62190;51.548;5.688;2023-03-01T08:53:39;8.33;;;5.40;;
73850;SDS011;62190;51.548;5.688;2023-03-01T08:56:09;12.07;;;6.40;;
73850;SDS011;62190;51.548;5.688;2023-03-01T08:58:37;11.90;;;6.30;;
73850;SDS011;62190;51.548;5.688;2023-03-01T09:01:11;9.25;;;6.12;;
73850;SDS011;62190;51.548;5.688;2023-03-01T09:03:40;8.65;;;5.40;;
73850;SDS011;62190;51.548;5.688;2023-03-01T09:06:08;10.53;;;6.08;;
73850;SDS011;62190;51.548;5.688;2023-03-01T09:08:37;11.83;;;6.30;;
73850;SDS011;62190;51.548;5.688;2023-03-01T09:11:07;10.63;;;5.92;;
73850;SDS011;62190;51.548;5.688;2023-03-01T09:13:37;8.93;;;5.85;;
73850;SDS011;62190;51.548;5.688;2023-03-01T09:16:05;9.85;;;5.78;;
73850;SDS011;62190;51.548;5.688;2023-03-01T09:18:34;6.80;;;5.08;;
73850;SDS011;62190;51.548;5.688;2023-03-01T09:21:07;13.80;;;6.45;;
73850;SDS011;62190;51.548;5.688;2023-03-01T09:23:37;9.80;;;5.42;;
73850;SDS011;62190;51.548;5.688;2023-03-01T09:26:07;12.03;;;6.33;;
73850;SDS011;62190;51.548;5.688;2023-03-01T09:28:36;11.80;;;6.78;;
73850;SDS011;62190;51.548;5.688;2023-03-01T09:31:05;12.53;;;6.45;;
73850;SDS011;62190;51.548;5.688;2023-03-01T09:33:40;9.63;;;5.87;;
73850;SDS011;62190;51.548;5.688;2023-03-01T09:36:11;10.88;;;6.22;;
73850;SDS011;62190;51.548;5.688;2023-03-01T09:38:43;8.63;;;5.85;;
73850;SDS011;62190;51.548;5.688;2023-03-01T09:44:03;11.40;;;5.83;;
73850;SDS011;62190;51.548;5.688;2023-03-01T09:46:32;9.55;;;5.70;;
73850;SDS011;62190;51.548;5.688;2023-03-01T09:49:03;9.93;;;6.45;;
73850;SDS011;62190;51.548;5.688;2023-03-01T09:51:34;7.50;;;5.70;;
73850;SDS011;62190;51.548;5.688;2023-03-01T09:54:02;9.98;;;5.67;;
73850;SDS011;62190;51.548;5.688;2023-03-01T09:59:24;9.55;;;5.53;;
73850;SDS011;62190;51.548;5.688;2023-03-01T10:04:51;8.98;;;5.72;;
73850;SDS011;62190;51.548;5.688;2023-03-01T10:09:57;9.65;;;5.90;;
73850;SDS011;62190;51.548;5.688;2023-03-01T10:12:27;9.60;;;6.20;;
73850;SDS011;62190;51.548;5.688;2023-03-01T10:15:02;7.72;;;5.12;;
73850;SDS011;62190;51.548;5.688;2023-03-01T10:17:38;11.05;;;6.97;;
73850;SDS011;62190;51.548;5.688;2023-03-01T10:22:47;9.55;;;6.30;;
73850;SDS011;62190;51.548;5.688;2023-03-01T10:25:40;11.40;;;6.67;;
73850;SDS011;62190;51.548;5.688;2023-03-01T10:28:20;11.22;;;6.42;;
73850;SDS011;62190;51.548;5.688;2023-03-01T10:30:58;10.55;;;7.28;;
73850;SDS011;62190;51.548;5.688;2023-03-01T10:33:31;10.93;;;7.10;;
73850;SDS011;62190;51.548;5.688;2023-03-01T10:36:01;12.70;;;7.08;;
73850;SDS011;62190;51.548;5.688;2023-03-01T10:38:30;9.50;;;6.45;;
73850;SDS011;62190;51.548;5.688;2023-03-01T10:41:04;10.13;;;6.47;;
73850;SDS011;62190;51.548;5.688;2023-03-01T10:43:47;10.15;;;6.08;;
73850;SDS011;62190;51.548;5.688;2023-03-01T10:46:49;10.10;;;5.80;;
73850;SDS011;62190;51.548;5.688;2023-03-01T10:49:15;10.32;;;5.85;;
73850;SDS011;62190;51.548;5.688;2023-03-01T10:51:45;12.30;;;6.85;;
73850;SDS011;62190;51.548;5.688;2023-03-01T10:56:56;10.65;;;6.22;;
73850;SDS011;62190;51.548;5.688;2023-03-01T10:59:32;9.13;;;6.47;;
73850;SDS011;62190;51.548;5.688;2023-03-01T11:04:58;9.95;;;5.65;;
73850;SDS011;62190;51.548;5.688;2023-03-01T11:07:30;10.72;;;5.70;;
73850;SDS011;62190;51.548;5.688;2023-03-01T11:09:58;9.75;;;6.22;;
73850;SDS011;62190;51.548;5.688;2023-03-01T11:12:25;13.18;;;6.35;;
73850;SDS011;62190;51.548;5.688;2023-03-01T11:14:54;11.12;;;5.87;;
73850;SDS011;62190;51.548;5.688;2023-03-01T11:17:29;12.55;;;6.25;;
73850;SDS011;62190;51.548;5.688;2023-03-01T11:20:05;9.73;;;6.08;;
73850;SDS011;62190;51.548;5.688;2023-03-01T11:22:49;11.48;;;5.83;;
73850;SDS011;62190;51.548;5.688;2023-03-01T11:25:17;10.35;;;6.08;;
73850;SDS011;62190;51.548;5.688;2023-03-01T11:27:48;9.70;;;5.58;;
73850;SDS011;62190;51.548;5.688;2023-03-01T11:30:20;8.48;;;5.83;;
73850;SDS011;62190;51.548;5.688;2023-03-01T11:33:17;9.45;;;5.10;;
73850;SDS011;62190;51.548;5.688;2023-03-01T11:36:00;10.48;;;5.45;;
73850;SDS011;62190;51.548;5.688;2023-03-01T11:38:40;9.40;;;5.50;;
73850;SDS011;62190;51.548;5.688;2023-03-01T11:41:19;9.03;;;5.67;;
73850;SDS011;62190;51.548;5.688;2023-03-01T11:49:04;9.18;;;5.58;;
73850;SDS011;62190;51.548;5.688;2023-03-01T11:51:38;9.85;;;5.42;;
73850;SDS011;62190;51.548;5.688;2023-03-01T11:56:57;7.65;;;5.22;;
73850;SDS011;62190;51.548;5.688;2023-03-01T11:59:44;8.78;;;5.78;;
73850;SDS011;62190;51.548;5.688;2023-03-01T12:02:27;10.55;;;5.53;;
73850;SDS011;62190;51.548;5.688;2023-03-01T12:05:08;10.15;;;5.35;;
73850;SDS011;62190;51.548;5.688;2023-03-01T12:07:46;8.53;;;5.10;;
73850;SDS011;62190;51.548;5.688;2023-03-01T12:10:33;8.43;;;5.60;;
73850;SDS011;62190;51.548;5.688;2023-03-01T12:13:13;11.78;;;5.83;;
73850;SDS011;62190;51.548;5.688;2023-03-01T12:18:50;8.68;;;5.92;;
73850;SDS011;62190;51.548;5.688;2023-03-01T12:21:49;7.10;;;5.05;;
73850;SDS011;62190;51.548;5.688;2023-03-01T12:27:23;10.43;;;5.10;;
73850;SDS011;62190;51.548;5.688;2023-03-01T12:35:25;9.63;;;5.17;;
73850;SDS011;62190;51.548;5.688;2023-03-01T12:47:26;8.78;;;5.40;;
73850;SDS011;62190;51.548;5.688;2023-03-01T12:59:11;8.00;;;4.90;;
73850;SDS011;62190;51.548;5.688;2023-03-01T13:36:56;9.40;;;5.10;;
73850;SDS011;62190;51.548;5.688;2023-03-01T13:42:30;7.65;;;5.10;;
73850;SDS011;62190;51.548;5.688;2023-03-01T13:50:31;8.20;;;5.15;;
73850;SDS011;62190;51.548;5.688;2023-03-01T13:53:07;7.97;;;5.50;;
73850;SDS011;62190;51.548;5.688;2023-03-01T14:10:07;9.40;;;5.53;;
73850;SDS011;62190;51.548;5.688;2023-03-01T14:13:48;10.63;;;5.35;;
73850;SDS011;62190;51.548;5.688;2023-03-01T14:15:42;8.15;;;5.30;;
73850;SDS011;62190;51.548;5.688;2023-03-01T14:21:19;7.05;;;4.87;;
73850;SDS011;62190;51.548;5.688;2023-03-01T14:29:43;10.15;;;6.10;;
73850;SDS011;62190;51.548;5.688;2023-03-01T14:38:28;9.20;;;5.40;;
73850;SDS011;62190;51.548;5.688;2023-03-01T14:41:07;10.80;;;6.03;;
73850;SDS011;62190;51.548;5.688;2023-03-01T14:43:49;16.17;;;5.58;;
73850;SDS011;62190;51.548;5.688;2023-03-01T15:04:56;7.80;;;5.47;;
73850;SDS011;62190;51.548;5.688;2023-03-01T15:07:36;8.70;;;5.30;;
73850;SDS011;62190;51.548;5.688;2023-03-01T15:10:25;11.88;;;5.75;;
73850;SDS011;62190;51.548;5.688;2023-03-01T15:15:49;9.95;;;6.03;;
73850;SDS011;62190;51.548;5.688;2023-03-01T15:18:20;11.80;;;6.08;;
73850;SDS011;62190;51.548;5.688;2023-03-01T15:21:04;10.93;;;5.78;;
73850;SDS011;62190;51.548;5.688;2023-03-01T15:23:57;9.25;;;5.92;;
73850;SDS011;62190;51.548;5.688;2023-03-01T15:29:19;11.38;;;6.62;;
73850;SDS011;62190;51.548;5.688;2023-03-01T15:32:04;13.50;;;6.05;;
73850;SDS011;62190;51.548;5.688;2023-03-01T15:40:24;12.18;;;6.67;;
73850;SDS011;62190;51.548;5.688;2023-03-01T15:43:13;13.30;;;6.55;;
73850;SDS011;62190;51.548;5.688;2023-03-01T15:45:47;9.43;;;6.17;;
73850;SDS011;62190;51.548;5.688;2023-03-01T15:48:21;11.00;;;5.97;;
73850;SDS011;62190;51.548;5.688;2023-03-01T15:50:54;10.50;;;5.70;;
73850;SDS011;62190;51.548;5.688;2023-03-01T15:53:35;10.50;;;6.15;;
73850;SDS011;62190;51.548;5.688;2023-03-01T15:56:07;9.05;;;5.97;;
73850;SDS011;62190;51.548;5.688;2023-03-01T16:01:50;10.10;;;7.03;;
73850;SDS011;62190;51.548;5.688;2023-03-01T16:04:21;12.68;;;7.10;;
73850;SDS011;62190;51.548;5.688;2023-03-01T16:07:05;11.53;;;6.75;;
73850;SDS011;62190;51.548;5.688;2023-03-01T16:09:49;11.43;;;6.10;;
73850;SDS011;62190;51.548;5.688;2023-03-01T16:15:08;10.98;;;6.67;;
73850;SDS011;62190;51.548;5.688;2023-03-01T16:17:43;12.05;;;6.37;;
73850;SDS011;62190;51.548;5.688;2023-03-01T16:20:16;11.08;;;6.40;;
73850;SDS011;62190;51.548;5.688;2023-03-01T16:22:46;13.10;;;7.42;;
73850;SDS011;62190;51.548;5.688;2023-03-01T16:25:33;12.35;;;6.87;;
73850;SDS011;62190;51.548;5.688;2023-03-01T16:28:02;12.15;;;6.28;;
73850;SDS011;62190;51.548;5.688;2023-03-01T16:30:35;10.88;;;6.17;;
73850;SDS011;62190;51.548;5.688;2023-03-01T16:33:07;12.25;;;7.10;;
73850;SDS011;62190;51.548;5.688;2023-03-01T16:38:33;11.80;;;6.80;;
73850;SDS011;62190;51.548;5.688;2023-03-01T16:41:00;12.40;;;7.22;;
73850;SDS011;62190;51.548;5.688;2023-03-01T16:43:35;10.80;;;6.28;;
73850;SDS011;62190;51.548;5.688;2023-03-01T16:46:09;11.28;;;6.58;;
73850;SDS011;62190;51.548;5.688;2023-03-01T16:48:45;11.83;;;6.65;;
73850;SDS011;62190;51.548;5.688;2023-03-01T16:51:23;10.23;;;5.95;;
73850;SDS011;62190;51.548;5.688;2023-03-01T16:53:48;17.50;;;7.15;;
73850;SDS011;62190;51.548;5.688;2023-03-01T16:56:23;14.98;;;7.15;;
73850;SDS011;62190;51.548;5.688;2023-03-01T16:58:47;11.03;;;6.47;;
73850;SDS011;62190;51.548;5.688;2023-03-01T17:01:18;9.65;;;6.00;;
73850;SDS011;62190;51.548;5.688;2023-03-01T17:03:48;10.85;;;6.55;;
73850;SDS011;62190;51.548;5.688;2023-03-01T17:06:21;9.35;;;5.70;;
73850;SDS011;62190;51.548;5.688;2023-03-01T17:08:52;11.15;;;6.28;;
73850;SDS011;62190;51.548;5.688;2023-03-01T17:11:23;12.33;;;6.37;;
73850;SDS011;62190;51.548;5.688;2023-03-01T17:13:51;10.93;;;5.65;;
73850;SDS011;62190;51.548;5.688;2023-03-01T17:16:19;13.53;;;6.65;;
73850;SDS011;62190;51.548;5.688;2023-03-01T17:18:47;10.18;;;5.37;;
73850;SDS011;62190;51.548;5.688;2023-03-01T17:21:15;11.85;;;7.15;;
73850;SDS011;62190;51.548;5.688;2023-03-01T17:23:43;9.90;;;6.15;;
73850;SDS011;62190;51.548;5.688;2023-03-01T17:26:11;12.95;;;7.45;;
73850;SDS011;62190;51.548;5.688;2023-03-01T17:28:41;12.37;;;7.00;;
73850;SDS011;62190;51.548;5.688;2023-03-01T17:31:17;10.05;;;6.47;;
73850;SDS011;62190;51.548;5.688;2023-03-01T17:33:41;10.23;;;5.95;;
73850;SDS011;62190;51.548;5.688;2023-03-01T17:36:08;12.30;;;6.33;;
73850;SDS011;62190;51.548;5.688;2023-03-01T17:38:37;11.30;;;6.65;;
73850;SDS011;62190;51.548;5.688;2023-03-01T17:41:05;14.30;;;7.20;;
73850;SDS011;62190;51.548;5.688;2023-03-01T17:43:32;12.75;;;7.22;;
73850;SDS011;62190;51.548;5.688;2023-03-01T17:46:01;11.97;;;6.90;;
73850;SDS011;62190;51.548;5.688;2023-03-01T17:48:29;11.70;;;6.60;;
73850;SDS011;62190;51.548;5.688;2023-03-01T17:51:09;11.48;;;6.15;;
73850;SDS011;62190;51.548;5.688;2023-03-01T17:53:36;13.93;;;7.97;;
73850;SDS011;62190;51.548;5.688;2023-03-01T17:56:05;15.95;;;7.75;;